Terminal Aerodrome Forecast
Issued by NWS

Current Version | Previous Version | Text Only | Print | Product List | Glossary Off
Versions: 1 2 3 4 5 6 7 8 9 10 11 12 13 14 15 16 17 18 19 20 21 22 23 24 25 26 27 28

000
FTUS41 KRLX 211100
TAFCKB
TAF
KCKB 211125Z 2112/2212 08003KT 3SM BR SCT002
      TEMPO 2112/2113 2SM BR
     FM211300 00000KT 4SM BR FEW003 SCT035
     FM211400 00000KT P6SM SCT035
     FM220300 VRB03KT 6SM BR SCT250
     FM220600 VRB03KT 2SM BR SCT250
     FM220900 VRB03KT 1/2SM FG SCT250=

USA.gov is the U.S. government's official web portal to all federal, state and local government web resources and services.